createdAt,value
2023-05-23T11:43:53.284Z,5.50
2023-05-23T11:46:22.729Z,5.45
2023-05-23T11:48:54.689Z,4.93
2023-05-23T11:51:24.142Z,4.50
2023-05-23T11:54:07.668Z,4.38
2023-05-23T12:01:53.267Z,4.72
2023-05-23T12:04:22.941Z,5.30
2023-05-23T12:06:52.911Z,4.82
2023-05-23T12:09:48.587Z,4.25
2023-05-23T12:12:44.721Z,4.55
2023-05-23T12:15:14.853Z,4.10
2023-05-23T12:17:47.395Z,3.95
2023-05-23T12:20:23.222Z,4.38
2023-05-23T12:22:56.699Z,4.53
2023-05-23T12:25:26.743Z,4.50
2023-05-23T12:27:58.327Z,4.28
2023-05-23T12:30:27.457Z,4.10
2023-05-23T12:32:58.160Z,5.57
2023-05-23T12:35:27.487Z,5.90
2023-05-23T12:37:58.881Z,5.85
2023-05-23T12:40:30.409Z,6.47
2023-05-23T12:42:59.823Z,7.03
2023-05-23T12:45:34.295Z,6.13
2023-05-23T12:48:04.877Z,5.65
2023-05-23T12:50:34.078Z,5.85
2023-05-23T12:53:03.191Z,6.32
2023-05-23T12:55:32.343Z,6.28
2023-05-23T12:58:01.378Z,5.65
2023-05-23T13:00:30.376Z,6.28
2023-05-23T13:02:59.440Z,6.78
2023-05-23T13:05:30.143Z,5.45
2023-05-23T13:08:00.314Z,6.70
2023-05-23T13:10:31.738Z,6.53
2023-05-23T13:13:21.830Z,6.70
2023-05-23T13:15:51.801Z,7.13
2023-05-23T13:18:21.198Z,7.38
2023-05-23T13:20:51.817Z,7.45
2023-05-23T13:23:21.306Z,6.68
2023-05-23T13:25:51.238Z,7.25
2023-05-23T13:28:20.361Z,6.75
2023-05-23T13:30:49.707Z,7.05
2023-05-23T13:33:35.093Z,7.57
2023-05-23T13:37:00.792Z,7.50
2023-05-23T13:40:22.015Z,8.18
2023-05-23T13:42:52.831Z,9.50
2023-05-23T13:46:14.630Z,8.77
2023-05-23T13:48:43.820Z,7.57
2023-05-23T13:51:13.165Z,7.38
2023-05-23T13:53:46.771Z,7.97
2023-05-23T13:56:22.942Z,7.55
2023-05-23T13:58:52.268Z,8.05
2023-05-23T14:01:27.780Z,8.23
2023-05-23T14:03:57.319Z,7.47
2023-05-23T14:06:28.303Z,7.30
2023-05-23T14:08:58.791Z,7.70
2023-05-23T14:11:30.132Z,8.88
2023-05-23T14:13:59.290Z,8.00
2023-05-23T14:16:32.546Z,8.07
2023-05-23T14:19:01.774Z,7.68
2023-05-23T14:21:37.402Z,8.10
2023-05-23T14:24:13.808Z,8.15
2023-05-23T14:26:43.023Z,7.77
2023-05-23T14:29:17.916Z,8.07
2023-05-23T14:31:47.089Z,7.97
2023-05-23T14:34:19.899Z,7.43
2023-05-23T14:36:48.866Z,7.32
2023-05-23T14:39:21.169Z,7.60
2023-05-23T14:41:53.101Z,7.13
2023-05-23T14:44:24.136Z,8.30
2023-05-23T14:46:53.196Z,6.78
2023-05-23T14:49:27.865Z,7.22
2023-05-23T14:51:56.818Z,7.13
2023-05-23T14:54:27.578Z,7.13
2023-05-23T14:56:56.833Z,7.45
2023-05-23T14:59:31.931Z,6.70
2023-05-23T15:02:01.220Z,6.60
2023-05-23T15:04:32.040Z,6.35
2023-05-23T15:07:01.913Z,6.40
2023-05-23T15:09:41.818Z,7.05
2023-05-23T15:12:26.176Z,6.88
2023-05-23T15:15:26.077Z,5.65
2023-05-23T15:18:42.019Z,7.00
2023-05-23T15:21:17.519Z,5.75
2023-05-23T15:24:57.000Z,5.78
2023-05-23T15:28:04.222Z,6.15
2023-05-23T15:31:09.833Z,6.43
2023-05-23T15:34:15.132Z,6.10
2023-05-23T15:36:44.517Z,6.53
2023-05-23T15:39:14.010Z,5.20
2023-05-23T15:41:49.377Z,6.13
2023-05-23T15:44:21.974Z,5.93
2023-05-23T15:46:57.472Z,5.95
2023-05-23T15:49:28.340Z,6.13
2023-05-23T15:52:03.693Z,6.00
2023-05-23T15:54:32.882Z,5.68
2023-05-23T15:57:20.290Z,5.63
2023-05-23T15:59:54.079Z,6.30
2023-05-23T16:02:23.444Z,6.80
2023-05-23T16:04:55.161Z,6.25
2023-05-23T16:07:24.383Z,5.70
2023-05-23T16:09:53.444Z,5.72
2023-05-23T16:12:22.482Z,5.63
2023-05-23T16:14:51.391Z,3.78
2023-05-23T16:17:22.420Z,3.67
2023-05-23T16:19:51.597Z,3.38
2023-05-23T16:22:20.620Z,2.70
2023-05-23T16:24:49.656Z,2.60
2023-05-23T16:27:18.695Z,2.50
2023-05-23T16:29:48.079Z,2.53
2023-05-23T16:32:17.204Z,2.17
2023-05-23T16:34:52.873Z,2.30
2023-05-23T16:39:54.129Z,2.80
2023-05-23T16:42:23.496Z,2.78
2023-05-23T16:44:52.621Z,2.58
2023-05-23T16:47:21.704Z,2.80
2023-05-23T16:49:55.273Z,2.63
2023-05-23T16:52:24.530Z,3.47
2023-05-23T16:54:55.708Z,2.80
2023-05-23T16:57:26.207Z,2.60
2023-05-23T16:59:55.228Z,3.30
2023-05-23T17:02:24.434Z,2.95
2023-05-23T17:04:55.744Z,2.97
2023-05-23T17:07:26.635Z,3.70
2023-05-23T17:09:55.939Z,3.55
2023-05-23T17:12:24.952Z,3.88
2023-05-23T17:14:55.322Z,3.58
2023-05-23T17:17:24.402Z,3.70
2023-05-23T17:20:06.468Z,3.70
2023-05-23T17:22:35.763Z,3.95
2023-05-23T17:25:09.139Z,4.32
2023-05-23T17:27:38.414Z,4.00
2023-05-23T17:30:09.154Z,4.05
2023-05-23T17:32:38.303Z,4.35
2023-05-23T17:35:10.181Z,4.55
2023-05-23T17:37:43.285Z,4.15
2023-05-23T17:40:13.334Z,4.30
2023-05-23T17:42:43.566Z,3.90
2023-05-23T17:45:13.253Z,4.38
2023-05-23T17:47:42.999Z,4.75
2023-05-23T17:50:14.111Z,3.97
2023-05-23T17:52:43.259Z,4.93
2023-05-23T17:55:12.504Z,4.97
2023-05-23T17:57:41.693Z,4.53
2023-05-23T18:00:18.954Z,4.65
2023-05-23T18:02:51.570Z,5.07
2023-05-23T18:05:23.717Z,5.38
2023-05-23T18:07:53.167Z,4.40
2023-05-23T18:10:22.159Z,4.63
2023-05-23T18:12:51.329Z,5.20
2023-05-23T18:15:24.227Z,4.80
2023-05-23T18:17:57.488Z,4.97
2023-05-23T18:20:28.201Z,4.75
2023-05-23T18:22:57.545Z,5.20
2023-05-23T18:25:36.498Z,4.40
2023-05-23T18:28:06.229Z,4.30
2023-05-23T18:30:35.311Z,5.10
2023-05-23T18:33:04.650Z,4.80
2023-05-23T18:35:35.384Z,4.70
2023-05-23T18:38:04.632Z,5.10
2023-05-23T18:40:33.624Z,5.30
2023-05-23T18:43:05.099Z,4.93
2023-05-23T18:45:34.558Z,5.72
2023-05-23T18:48:06.564Z,5.00
2023-05-23T18:50:40.274Z,5.40
2023-05-23T18:53:09.863Z,6.25
2023-05-23T18:55:44.705Z,5.53
2023-05-23T18:58:14.041Z,5.70
2023-05-23T19:00:44.693Z,5.95
2023-05-23T19:03:16.636Z,6.25
2023-05-23T19:05:47.346Z,6.35
2023-05-23T19:08:17.876Z,6.07
2023-05-23T19:10:46.910Z,6.07
2023-05-23T19:13:15.922Z,6.53
2023-05-23T19:15:45.808Z,5.90
2023-05-23T19:18:15.013Z,6.53
2023-05-23T19:20:44.275Z,6.43
2023-05-23T19:23:17.892Z,6.55
2023-05-23T19:25:46.975Z,6.47
2023-05-23T19:28:16.309Z,6.22
2023-05-23T19:30:47.851Z,6.07
2023-05-23T19:33:16.967Z,6.00
2023-05-23T19:35:46.236Z,6.85
2023-05-23T19:38:16.728Z,6.55
2023-05-23T19:40:48.585Z,5.95
2023-05-23T19:43:23.277Z,7.28
2023-05-23T19:46:07.829Z,6.05
2023-05-23T19:48:37.011Z,7.40
2023-05-23T19:51:06.918Z,7.65
2023-05-23T19:53:37.462Z,7.75
2023-05-23T19:56:07.043Z,6.80
2023-05-23T19:58:36.437Z,7.07
2023-05-23T20:01:05.924Z,7.65
2023-05-23T20:03:38.549Z,7.28
2023-05-23T20:06:07.686Z,6.80
2023-05-23T20:08:38.327Z,7.15
2023-05-23T20:11:07.629Z,7.15
2023-05-23T20:13:37.774Z,7.28
2023-05-23T20:16:10.522Z,7.78
2023-05-23T20:18:42.151Z,7.78
2023-05-23T20:21:11.543Z,6.70
2023-05-23T20:23:43.505Z,7.32
2023-05-23T20:26:12.594Z,6.60
2023-05-23T20:28:41.840Z,6.72
2023-05-23T20:31:11.267Z,7.32
2023-05-23T20:33:40.401Z,7.15
2023-05-23T20:36:09.588Z,6.70
2023-05-23T20:38:42.828Z,6.97
2023-05-23T20:41:14.184Z,6.28
2023-05-23T20:43:44.680Z,7.03
2023-05-23T20:46:14.694Z,6.75
2023-05-23T20:48:43.928Z,7.57
2023-05-23T20:51:13.652Z,6.95
2023-05-23T20:53:44.253Z,6.28
2023-05-23T20:56:14.271Z,7.13
2023-05-23T20:58:45.783Z,6.88
2023-05-23T21:01:15.362Z,6.90
2023-05-23T21:03:44.442Z,6.80
2023-05-23T21:06:13.428Z,7.30
2023-05-23T21:08:44.009Z,5.90
2023-05-23T21:11:13.164Z,6.78
2023-05-23T21:13:42.156Z,6.65
2023-05-23T21:16:14.285Z,6.28
2023-05-23T21:18:43.390Z,6.82
2023-05-23T21:21:12.446Z,6.40
2023-05-23T21:23:43.033Z,6.78
2023-05-23T21:26:21.049Z,6.65
2023-05-23T21:28:51.113Z,6.95
2023-05-23T21:31:37.173Z,7.07
2023-05-23T21:34:23.369Z,6.50
2023-05-23T21:36:55.028Z,6.18
2023-05-23T21:39:26.187Z,6.35
2023-05-23T21:41:59.471Z,6.85
2023-05-23T21:44:30.375Z,6.47
2023-05-23T21:47:00.816Z,7.53
2023-05-23T21:49:32.778Z,7.18
2023-05-23T21:52:02.005Z,8.50
2023-05-23T21:54:31.763Z,6.93
2023-05-23T21:57:02.423Z,7.40
2023-05-23T21:59:31.603Z,6.25
2023-05-23T22:02:01.076Z,7.55
2023-05-23T22:04:30.151Z,7.20
2023-05-23T22:06:59.937Z,6.88
2023-05-23T22:09:29.391Z,6.65
2023-05-23T22:11:58.938Z,8.07
2023-05-23T22:14:29.827Z,6.85
2023-05-23T22:17:02.198Z,6.68
2023-05-23T22:19:31.534Z,6.78
2023-05-23T22:22:00.737Z,7.22
2023-05-23T22:24:30.765Z,7.07
2023-05-23T22:27:01.049Z,7.13
2023-05-23T22:29:31.762Z,7.32
2023-05-23T22:32:01.079Z,6.32
2023-05-23T22:34:30.459Z,7.07
2023-05-23T22:37:00.385Z,7.57
2023-05-23T22:39:29.583Z,6.75
2023-05-23T22:42:01.981Z,6.22
2023-05-23T22:44:32.538Z,7.03
2023-05-23T22:47:03.818Z,6.68
2023-05-23T22:49:32.964Z,7.65
2023-05-23T22:52:02.013Z,8.25
2023-05-23T22:54:31.063Z,7.80
2023-05-23T22:57:00.057Z,7.80
2023-05-23T22:59:30.823Z,8.35
2023-05-23T23:02:01.260Z,7.93
2023-05-23T23:04:33.286Z,7.30
2023-05-23T23:07:02.686Z,7.85
2023-05-23T23:09:31.730Z,7.05
2023-05-23T23:12:01.342Z,7.43
2023-05-23T23:14:30.311Z,7.72
2023-05-23T23:17:00.764Z,8.15
2023-05-23T23:19:31.397Z,7.22
2023-05-23T23:22:00.462Z,7.75
2023-05-23T23:24:29.904Z,8.13
2023-05-23T23:26:59.088Z,7.75
2023-05-23T23:29:28.160Z,8.13
2023-05-23T23:31:59.631Z,7.85
2023-05-23T23:34:32.764Z,7.22
2023-05-23T23:37:01.768Z,8.05
2023-05-23T23:39:30.783Z,8.38
2023-05-23T23:41:59.919Z,8.20
2023-05-23T23:44:29.037Z,7.50
2023-05-23T23:46:58.062Z,7.60
2023-05-23T23:49:29.349Z,7.45
2023-05-23T23:52:00.142Z,7.70
2023-05-23T23:54:29.220Z,8.35
2023-05-23T23:56:58.259Z,8.15
2023-05-23T23:59:27.438Z,8.75
